Aurelia, North Dakota
Current Conditions -  °F | °C
As of 3:35 AM on Monday 24 Nov 2014 (Local Time) from K08D Reporting Station
Overcast Overcast  
Wind Chill: -4°   Ceiling: 6000
Heat Index:   Visibility: 10mi
Dew Point:   Wind: 5mph
Humidity: 92%   Direction: 310°NW
Pressure: 29.79"   Gusts: NA
Location:  48.4598°N, 101.907°W
Report Text: K08D 240935Z AUTO 31004KT 10SM BKN060 OVC070 M15/M16 A2979 RMK AO2
Loading
Personal Weather Stations






























Interactive Weather Map New forecast layout! Learn more

10-Day Weather Forecast

Advertisements
Track Severe Weather on mobile